createdAt,value
2022-12-22T00:00:13.942Z,1.17
2022-12-22T00:02:59.291Z,0.98
2022-12-22T00:05:44.657Z,0.93
2022-12-22T00:08:29.804Z,0.90
2022-12-22T00:11:15.559Z,1.45
2022-12-22T00:14:01.718Z,1.17
2022-12-22T00:16:52.003Z,0.90
2022-12-22T00:19:37.282Z,1.00
2022-12-22T00:22:39.146Z,1.15
2022-12-22T00:25:24.822Z,1.10
2022-12-22T00:28:10.096Z,0.90
2022-12-22T00:30:55.876Z,0.90
2022-12-22T00:33:41.111Z,1.10
2022-12-22T00:36:26.834Z,1.42
2022-12-22T00:39:12.014Z,1.15
2022-12-22T00:41:57.316Z,1.15
2022-12-22T00:44:42.586Z,1.05
2022-12-22T00:47:43.794Z,1.33
2022-12-22T00:50:29.500Z,0.93
2022-12-22T00:53:14.612Z,1.30
2022-12-22T00:55:59.761Z,2.03
2022-12-22T00:58:45.050Z,1.10
2022-12-22T01:01:31.326Z,1.55
2022-12-22T01:04:16.703Z,1.80
2022-12-22T01:07:01.846Z,1.40
2022-12-22T01:09:47.136Z,1.20
2022-12-22T01:12:43.488Z,1.38
2022-12-22T01:15:34.423Z,1.27
2022-12-22T01:18:19.975Z,1.50
2022-12-22T01:21:05.154Z,1.38
2022-12-22T01:23:50.538Z,1.50
2022-12-22T01:26:35.771Z,1.67
2022-12-22T01:29:21.127Z,1.77
2022-12-22T01:32:06.230Z,1.30
2022-12-22T01:34:51.423Z,1.77
2022-12-22T01:37:36.915Z,1.33
2022-12-22T01:40:22.604Z,1.63
2022-12-22T01:43:07.887Z,1.33
2022-12-22T01:45:55.012Z,1.48
2022-12-22T01:48:45.762Z,1.58
2022-12-22T01:51:37.958Z,1.38
2022-12-22T01:54:23.251Z,1.20
2022-12-22T01:57:08.478Z,1.50
2022-12-22T01:59:53.934Z,1.30
2022-12-22T02:02:39.587Z,1.25
2022-12-22T02:05:25.287Z,1.20
2022-12-22T02:08:19.579Z,1.13
2022-12-22T02:11:07.665Z,1.10
2022-12-22T02:14:37.680Z,1.17
2022-12-22T02:17:41.746Z,1.45
2022-12-22T02:20:59.180Z,1.50
2022-12-22T02:23:47.756Z,1.00
2022-12-22T02:26:49.141Z,0.88
2022-12-22T02:29:36.334Z,1.00
2022-12-22T02:32:21.635Z,0.80
2022-12-22T02:35:06.797Z,0.93
2022-12-22T02:38:03.212Z,1.15
2022-12-22T02:41:14.442Z,0.95
2022-12-22T02:44:11.862Z,0.80
2022-12-22T02:47:06.093Z,1.10
2022-12-22T02:49:57.882Z,0.68
2022-12-22T02:52:49.095Z,0.85
2022-12-22T02:55:34.903Z,0.80
2022-12-22T02:58:20.242Z,1.25
2022-12-22T03:01:05.412Z,0.80
2022-12-22T03:03:51.234Z,0.70
2022-12-22T03:06:36.741Z,0.90
2022-12-22T03:09:22.281Z,0.80
2022-12-22T03:12:07.310Z,0.80
2022-12-22T03:14:52.643Z,0.75
2022-12-22T03:17:37.940Z,0.80
2022-12-22T03:20:23.581Z,0.50
2022-12-22T03:23:08.920Z,0.75
2022-12-22T03:25:52.021Z,1.20
2022-12-22T03:28:19.524Z,0.73
2022-12-22T03:30:46.159Z,0.90
2022-12-22T03:33:12.818Z,0.50
2022-12-22T03:35:39.482Z,0.52
2022-12-22T03:38:06.135Z,0.75
2022-12-22T03:40:32.800Z,0.40
2022-12-22T03:43:17.945Z,0.60
2022-12-22T03:46:03.197Z,0.70
2022-12-22T03:48:29.866Z,0.63
2022-12-22T03:50:56.528Z,0.73
2022-12-22T03:53:23.184Z,0.65
2022-12-22T03:55:49.809Z,0.60
2022-12-22T03:58:16.459Z,0.70
2022-12-22T04:00:43.172Z,0.57
2022-12-22T04:03:09.997Z,0.82
2022-12-22T04:05:36.768Z,0.63
2022-12-22T04:08:03.535Z,0.73
2022-12-22T04:10:48.818Z,0.70
2022-12-22T04:13:15.493Z,0.70
2022-12-22T04:15:42.168Z,0.43
2022-12-22T04:18:08.950Z,0.50
2022-12-22T04:20:35.649Z,0.40
2022-12-22T04:23:02.427Z,0.30
2022-12-22T04:25:29.720Z,0.52
2022-12-22T04:27:56.438Z,0.60
2022-12-22T04:30:23.067Z,0.50
2022-12-22T04:32:49.786Z,0.45
2022-12-22T04:35:16.624Z,0.30
2022-12-22T04:37:43.266Z,0.60
2022-12-22T04:40:10.255Z,0.45
2022-12-22T04:42:36.935Z,0.88
2022-12-22T04:45:03.836Z,0.50
2022-12-22T04:47:30.457Z,0.57
2022-12-22T04:49:57.174Z,0.93
2022-12-22T04:53:24.186Z,0.40
2022-12-22T04:56:00.988Z,0.70
2022-12-22T04:58:28.281Z,0.50
2022-12-22T05:00:55.759Z,0.50
2022-12-22T05:03:22.907Z,0.55
2022-12-22T05:05:49.578Z,0.90
2022-12-22T05:08:16.304Z,2.03
2022-12-22T05:10:43.026Z,2.70
2022-12-22T05:13:09.717Z,1.05
2022-12-22T05:15:36.918Z,1.10
2022-12-22T05:18:04.291Z,0.95
2022-12-22T05:20:31.217Z,0.47
2022-12-22T05:22:59.469Z,0.40
2022-12-22T05:25:29.856Z,0.50
2022-12-22T05:27:58.303Z,0.82
2022-12-22T05:30:25.288Z,0.70
2022-12-22T05:32:52.055Z,0.90
2022-12-22T05:35:18.844Z,0.70
2022-12-22T05:37:45.532Z,0.70
2022-12-22T05:40:12.574Z,0.50
2022-12-22T05:42:39.703Z,0.70
2022-12-22T05:45:18.683Z,0.93
2022-12-22T05:47:47.726Z,0.60
2022-12-22T05:50:15.782Z,1.15
2022-12-22T05:52:42.873Z,0.90
2022-12-22T05:55:10.307Z,0.60
2022-12-22T05:57:38.409Z,0.70
2022-12-22T06:00:08.734Z,1.23
2022-12-22T06:02:35.611Z,0.60
2022-12-22T06:05:02.591Z,0.70
2022-12-22T06:07:29.272Z,0.75
2022-12-22T06:09:56.016Z,0.77
2022-12-22T06:12:22.777Z,1.33
2022-12-22T06:14:49.575Z,1.27
2022-12-22T06:17:16.277Z,0.82
2022-12-22T06:19:42.948Z,0.98
2022-12-22T06:22:09.596Z,0.68
2022-12-22T06:24:36.277Z,1.10
2022-12-22T06:27:03.010Z,1.02
2022-12-22T06:29:29.712Z,1.05
2022-12-22T06:31:56.352Z,0.70
2022-12-22T06:34:23.044Z,1.23
2022-12-22T06:36:50.085Z,1.15
2022-12-22T06:39:17.314Z,0.93
2022-12-22T06:42:02.533Z,0.88
2022-12-22T06:44:29.999Z,0.85
2022-12-22T06:46:56.783Z,1.13
2022-12-22T06:49:23.565Z,1.33
2022-12-22T06:51:50.438Z,0.90
2022-12-22T06:54:20.856Z,1.00
2022-12-22T06:56:52.481Z,1.10
2022-12-22T06:59:19.152Z,1.05
2022-12-22T07:01:46.028Z,1.20
2022-12-22T07:04:17.160Z,1.00
2022-12-22T07:06:43.834Z,0.98
2022-12-22T07:09:10.546Z,1.27
2022-12-22T07:11:37.285Z,1.88
2022-12-22T07:14:04.004Z,1.20
2022-12-22T07:16:30.763Z,1.40
2022-12-22T07:18:57.592Z,1.58
2022-12-22T07:21:24.303Z,1.42
2022-12-22T07:23:50.991Z,1.90
2022-12-22T07:26:17.630Z,1.23
2022-12-22T07:28:44.416Z,2.10
2022-12-22T07:31:11.892Z,1.25
2022-12-22T07:33:38.884Z,1.02
2022-12-22T07:36:11.702Z,1.63
2022-12-22T07:38:40.287Z,1.50
2022-12-22T07:41:26.746Z,2.08
2022-12-22T07:43:54.428Z,1.60
2022-12-22T07:46:21.226Z,1.33
2022-12-22T07:49:06.447Z,2.10
2022-12-22T07:51:37.549Z,1.50
2022-12-22T07:54:08.449Z,1.67
2022-12-22T07:56:35.372Z,1.80
2022-12-22T07:59:02.210Z,2.00
2022-12-22T08:01:28.964Z,1.30
2022-12-22T08:03:55.955Z,1.10
2022-12-22T08:06:22.887Z,1.55
2022-12-22T08:08:49.748Z,1.08
2022-12-22T08:11:16.448Z,0.82
2022-12-22T08:13:46.711Z,1.10
2022-12-22T08:16:14.353Z,1.17
2022-12-22T08:18:41.280Z,1.55
2022-12-22T08:21:08.570Z,1.85
2022-12-22T08:23:35.893Z,2.47
2022-12-22T08:26:24.085Z,1.20
2022-12-22T08:29:05.684Z,1.05
2022-12-22T08:31:33.020Z,1.20
2022-12-22T08:34:00.452Z,1.30
2022-12-22T08:36:27.257Z,1.17
2022-12-22T08:38:54.019Z,1.13
2022-12-22T08:41:40.703Z,1.17
2022-12-22T08:44:07.542Z,1.45
2022-12-22T08:46:34.280Z,1.20
2022-12-22T08:49:01.010Z,1.45
2022-12-22T08:51:27.685Z,1.70
2022-12-22T08:54:09.974Z,1.10
2022-12-22T08:56:36.730Z,1.10
2022-12-22T08:59:05.543Z,1.55
2022-12-22T09:01:36.094Z,1.92
2022-12-22T09:04:04.467Z,1.83
2022-12-22T09:06:38.299Z,1.30
2022-12-22T09:09:09.706Z,1.05
2022-12-22T09:11:38.848Z,1.30
2022-12-22T09:14:06.175Z,1.80
2022-12-22T09:16:34.143Z,1.20
2022-12-22T09:19:01.717Z,1.38
2022-12-22T09:21:28.650Z,1.73
2022-12-22T09:23:56.417Z,1.88
2022-12-22T09:26:24.815Z,1.35
2022-12-22T09:28:52.067Z,1.55
2022-12-22T09:31:20.462Z,1.67
2022-12-22T09:33:47.414Z,1.20
2022-12-22T09:36:16.038Z,1.20
2022-12-22T09:38:42.754Z,1.80
2022-12-22T09:41:22.983Z,1.55
2022-12-22T09:43:49.771Z,2.42
2022-12-22T09:46:22.118Z,1.50
2022-12-22T09:48:49.349Z,1.67
2022-12-22T09:51:22.684Z,1.83
2022-12-22T09:53:55.988Z,1.70
2022-12-22T09:56:23.401Z,1.42
2022-12-22T10:02:09.718Z,1.80
2022-12-22T10:04:57.629Z,1.60
2022-12-22T10:07:34.625Z,1.38
2022-12-22T10:10:12.735Z,1.60
2022-12-22T10:12:39.498Z,2.03
2022-12-22T10:15:07.978Z,1.38
2022-12-22T10:17:35.408Z,1.27
2022-12-22T10:20:28.897Z,1.85
2022-12-22T10:23:02.873Z,1.20
2022-12-22T10:28:34.080Z,1.10
2022-12-22T10:31:34.316Z,1.20
2022-12-22T10:34:16.684Z,1.67
2022-12-22T10:36:49.239Z,1.23
2022-12-22T10:39:41.013Z,1.45
2022-12-22T10:42:14.128Z,1.45
2022-12-22T10:47:17.895Z,1.00
2022-12-22T10:49:47.283Z,1.45
2022-12-22T10:52:34.414Z,1.55
2022-12-22T10:55:28.866Z,1.52
2022-12-22T10:58:18.760Z,2.22
2022-12-22T11:00:45.565Z,1.65
2022-12-22T11:03:20.765Z,1.65
2022-12-22T11:05:53.040Z,1.88
2022-12-22T11:08:20.534Z,1.67
2022-12-22T11:10:56.144Z,2.90
2022-12-22T11:13:45.555Z,1.85
2022-12-22T11:16:28.038Z,2.13
2022-12-22T11:19:16.626Z,2.08
2022-12-22T11:22:05.881Z,1.60
2022-12-22T11:24:39.131Z,2.90
2022-12-22T11:27:25.175Z,3.95
2022-12-22T11:29:58.285Z,4.47
2022-12-22T11:35:39.875Z,2.90
2022-12-22T11:38:31.047Z,8.33
2022-12-22T11:41:05.233Z,11.05
2022-12-22T11:43:57.379Z,7.90
2022-12-22T11:46:56.386Z,3.58
2022-12-22T11:49:42.360Z,3.90
2022-12-22T11:52:32.616Z,1.40
2022-12-22T11:55:20.542Z,1.50
2022-12-22T11:57:54.576Z,1.27
2022-12-22T12:00:32.788Z,1.10
2022-12-22T12:03:21.709Z,0.98
2022-12-22T12:06:07.876Z,0.77
2022-12-22T12:08:54.884Z,0.73
2022-12-22T12:11:57.456Z,0.50
2022-12-22T12:14:31.883Z,0.90
2022-12-22T12:17:01.287Z,0.85
2022-12-22T12:19:50.640Z,0.82
2022-12-22T12:22:56.175Z,0.75
2022-12-22T12:25:40.771Z,0.60
2022-12-22T12:28:12.194Z,0.82
2022-12-22T12:31:12.230Z,0.40
2022-12-22T12:33:52.441Z,0.40
2022-12-22T12:36:28.025Z,0.52
2022-12-22T12:39:26.846Z,1.17
2022-12-22T12:42:30.027Z,0.32
2022-12-22T12:44:57.558Z,0.73
2022-12-22T12:47:33.451Z,0.90
2022-12-22T12:50:28.097Z,0.57
2022-12-22T12:53:09.315Z,0.40
2022-12-22T12:55:40.843Z,0.80
2022-12-22T12:58:13.977Z,0.80
2022-12-22T13:00:47.827Z,0.57
2022-12-22T13:04:01.210Z,0.80
2022-12-22T13:06:49.958Z,0.60
2022-12-22T13:09:50.653Z,0.40
2022-12-22T13:12:35.281Z,0.70
2022-12-22T13:15:02.884Z,0.80
2022-12-22T13:17:44.922Z,0.80
2022-12-22T13:20:16.035Z,1.52
2022-12-22T13:22:43.728Z,1.00
2022-12-22T13:25:17.902Z,0.50
2022-12-22T13:27:45.170Z,1.02
2022-12-22T13:30:17.527Z,0.90
2022-12-22T13:32:46.682Z,0.60
2022-12-22T13:35:32.980Z,1.17
2022-12-22T13:38:01.848Z,0.80
2022-12-22T13:40:39.736Z,1.33
2022-12-22T13:43:17.276Z,0.88
2022-12-22T13:45:49.746Z,0.60
2022-12-22T13:48:53.442Z,1.63
2022-12-22T13:51:25.662Z,0.57
2022-12-22T13:54:11.803Z,1.17
2022-12-22T13:57:12.456Z,2.13
2022-12-22T13:59:47.244Z,0.90
2022-12-22T14:02:16.746Z,0.90
2022-12-22T14:04:51.940Z,0.63
2022-12-22T14:07:21.218Z,1.48
2022-12-22T14:09:49.952Z,1.15
2022-12-22T14:12:24.494Z,0.93
2022-12-22T14:14:52.704Z,1.00
2022-12-22T14:18:10.239Z,0.60
2022-12-22T14:20:38.227Z,1.00
2022-12-22T14:23:07.428Z,1.73
2022-12-22T14:25:36.793Z,0.80
2022-12-22T14:28:04.637Z,0.73
2022-12-22T14:30:38.608Z,1.40
2022-12-22T14:33:28.682Z,1.55
2022-12-22T14:36:15.316Z,1.02
2022-12-22T14:39:09.165Z,1.50
2022-12-22T14:41:54.242Z,1.13
2022-12-22T14:44:29.846Z,1.23
2022-12-22T14:47:18.006Z,1.15
2022-12-22T14:50:04.711Z,1.70
2022-12-22T14:52:51.606Z,1.80
2022-12-22T14:55:33.896Z,1.42
2022-12-22T14:58:11.219Z,1.35
2022-12-22T15:00:42.445Z,1.30
2022-12-22T15:03:33.121Z,1.65
2022-12-22T15:06:22.556Z,1.55
2022-12-22T15:08:49.403Z,1.95
2022-12-22T15:11:17.927Z,1.30
2022-12-22T15:13:45.503Z,1.48
2022-12-22T15:16:17.272Z,1.45
2022-12-22T15:18:44.015Z,1.98
2022-12-22T15:21:14.220Z,2.50
2022-12-22T15:23:41.306Z,2.00
2022-12-22T15:26:08.022Z,1.77
2022-12-22T15:28:34.686Z,1.30
2022-12-22T15:31:02.707Z,1.35
2022-12-22T15:33:30.029Z,1.67
2022-12-22T15:35:57.031Z,2.05
2022-12-22T15:38:24.912Z,1.40
2022-12-22T15:40:51.813Z,1.75
2022-12-22T15:43:55.182Z,1.48
2022-12-22T15:46:05.933Z,2.22
2022-12-22T15:48:34.507Z,2.45
2022-12-22T15:51:03.122Z,2.35
2022-12-22T15:53:29.821Z,5.03
2022-12-22T15:55:58.752Z,3.53
2022-12-22T15:58:32.285Z,2.13
2022-12-22T16:00:59.031Z,1.63
2022-12-22T16:03:25.841Z,1.60
2022-12-22T16:06:27.581Z,2.30
2022-12-22T16:08:54.553Z,1.90
2022-12-22T16:11:21.392Z,2.00
2022-12-22T16:13:48.695Z,1.65
2022-12-22T16:16:15.558Z,2.42
2022-12-22T16:18:42.383Z,2.20
2022-12-22T16:21:17.771Z,2.20
2022-12-22T16:23:45.760Z,2.58
2022-12-22T16:26:18.458Z,2.00
2022-12-22T16:28:45.146Z,1.77
2022-12-22T16:31:23.263Z,3.20
2022-12-22T16:33:50.521Z,2.90
2022-12-22T16:36:17.678Z,3.20
2022-12-22T16:38:47.567Z,2.80
2022-12-22T16:41:24.951Z,3.70
2022-12-22T16:43:53.587Z,2.67
2022-12-22T16:46:21.678Z,2.78
2022-12-22T16:48:50.364Z,2.00
2022-12-22T16:51:34.482Z,1.70
2022-12-22T16:54:01.802Z,1.63
2022-12-22T16:56:30.562Z,1.90
2022-12-22T16:58:57.669Z,1.52
2022-12-22T17:01:30.770Z,2.20
2022-12-22T17:03:58.686Z,1.92
2022-12-22T17:06:25.485Z,1.92
2022-12-22T17:08:52.252Z,1.83
2022-12-22T17:11:21.890Z,2.40
2022-12-22T17:13:49.444Z,2.08
2022-12-22T17:16:21.191Z,2.50
2022-12-22T17:18:48.373Z,2.00
2022-12-22T17:21:23.424Z,2.25
2022-12-22T17:23:53.736Z,2.70
2022-12-22T17:26:22.357Z,2.50
2022-12-22T17:28:49.674Z,2.08
2022-12-22T17:31:18.844Z,2.13
2022-12-22T17:33:47.898Z,3.35
2022-12-22T17:36:20.982Z,13.68
2022-12-22T17:38:48.551Z,7.22
2022-12-22T17:41:17.115Z,3.22
2022-12-22T17:43:44.444Z,2.50
2022-12-22T17:46:16.694Z,3.17
2022-12-22T17:48:45.131Z,2.50
2022-12-22T17:51:27.541Z,2.28
2022-12-22T17:53:55.870Z,2.28
2022-12-22T17:56:24.399Z,2.38
2022-12-22T17:58:51.838Z,3.33
2022-12-22T18:01:25.083Z,2.58
2022-12-22T18:03:52.755Z,2.30
2022-12-22T18:06:21.263Z,2.03
2022-12-22T18:08:48.652Z,3.30
2022-12-22T18:11:16.232Z,5.03
2022-12-22T18:13:43.503Z,3.83
2022-12-22T18:16:17.891Z,3.35
2022-12-22T18:18:46.605Z,2.83
2022-12-22T18:21:19.475Z,5.05
2022-12-22T18:23:50.665Z,3.33
2022-12-22T18:26:23.880Z,4.95
2022-12-22T18:28:50.917Z,4.10
2022-12-22T18:31:18.077Z,3.67
2022-12-22T18:33:44.811Z,3.40
2022-12-22T18:36:32.672Z,3.40
2022-12-22T18:39:00.885Z,3.33
2022-12-22T18:41:29.128Z,3.25
2022-12-22T18:43:55.870Z,3.78
2022-12-22T18:46:23.791Z,4.85
2022-12-22T18:48:50.793Z,3.92
2022-12-22T18:51:25.888Z,4.03
2022-12-22T18:53:53.549Z,2.67
2022-12-22T18:56:20.448Z,3.30
2022-12-22T18:58:47.374Z,2.90
2022-12-22T19:01:19.446Z,3.60
2022-12-22T19:03:46.266Z,4.13
2022-12-22T19:06:18.341Z,3.78
2022-12-22T19:08:47.360Z,3.43
2022-12-22T19:11:14.959Z,2.70
2022-12-22T19:13:46.878Z,3.50
2022-12-22T19:16:15.629Z,3.38
2022-12-22T19:18:42.726Z,3.90
2022-12-22T19:21:17.293Z,2.78
2022-12-22T19:23:44.577Z,3.88
2022-12-22T19:26:23.125Z,3.17
2022-12-22T19:28:57.556Z,2.40
2022-12-22T19:31:30.265Z,2.53
2022-12-22T19:33:58.867Z,3.50
2022-12-22T19:36:27.490Z,3.42
2022-12-22T19:39:02.604Z,2.83
2022-12-22T19:41:47.575Z,3.35
2022-12-22T19:46:52.364Z,2.90
2022-12-22T19:49:22.328Z,3.03
2022-12-22T19:51:49.780Z,3.22
2022-12-22T19:54:16.616Z,3.65
2022-12-22T19:56:46.905Z,2.83
2022-12-22T19:59:38.745Z,3.03
2022-12-22T20:02:21.540Z,4.40
2022-12-22T20:04:49.238Z,2.95
2022-12-22T20:07:16.889Z,3.58
2022-12-22T20:09:44.364Z,3.25
2022-12-22T20:12:29.009Z,2.58
2022-12-22T20:14:55.763Z,3.70
2022-12-22T20:17:22.608Z,3.38
2022-12-22T20:19:49.275Z,3.28
2022-12-22T20:22:17.168Z,3.40
2022-12-22T20:24:44.644Z,2.53
2022-12-22T20:27:29.069Z,3.72
2022-12-22T20:29:56.987Z,3.45
2022-12-22T20:32:27.986Z,3.80
2022-12-22T20:34:55.650Z,3.03
2022-12-22T20:37:22.541Z,3.00
2022-12-22T20:39:49.198Z,2.53
2022-12-22T20:42:20.249Z,2.90
2022-12-22T20:45:02.619Z,2.75
2022-12-22T20:47:32.561Z,2.50
2022-12-22T20:49:59.394Z,2.42
2022-12-22T20:52:26.501Z,2.25
2022-12-22T20:54:53.260Z,2.10
2022-12-22T20:57:19.980Z,2.47
2022-12-22T20:59:55.733Z,2.20
2022-12-22T21:02:25.470Z,2.53
2022-12-22T21:04:52.381Z,2.55
2022-12-22T21:07:20.222Z,3.10
2022-12-22T21:09:46.972Z,2.05
2022-12-22T21:12:13.743Z,1.60
2022-12-22T21:14:40.359Z,1.98
2022-12-22T21:17:17.381Z,2.13
2022-12-22T21:19:44.438Z,1.70
2022-12-22T21:22:11.334Z,2.10
2022-12-22T21:24:38.515Z,2.65
2022-12-22T21:27:05.345Z,1.67
2022-12-22T21:29:32.093Z,2.03
2022-12-22T21:31:58.959Z,1.70
2022-12-22T21:34:25.632Z,1.42
2022-12-22T21:36:57.173Z,1.40
2022-12-22T21:39:29.452Z,1.30
2022-12-22T21:42:03.962Z,2.00
2022-12-22T21:44:32.204Z,2.45
2022-12-22T21:46:59.464Z,3.08
2022-12-22T21:49:31.412Z,3.22
2022-12-22T21:51:58.187Z,1.58
2022-12-22T21:54:25.581Z,1.58
2022-12-22T21:56:53.027Z,1.30
2022-12-22T21:59:20.166Z,1.90
2022-12-22T22:01:47.582Z,3.53
2022-12-22T22:04:14.531Z,3.47
2022-12-22T22:06:41.275Z,1.25
2022-12-22T22:09:08.017Z,2.03
2022-12-22T22:11:54.975Z,1.58
2022-12-22T22:14:22.188Z,1.30
2022-12-22T22:16:49.411Z,1.65
2022-12-22T22:19:17.983Z,2.22
2022-12-22T22:21:45.902Z,1.20
2022-12-22T22:24:13.279Z,1.48
2022-12-22T22:26:40.091Z,2.08
2022-12-22T22:29:06.911Z,1.23
2022-12-22T22:31:34.018Z,1.75
2022-12-22T22:34:00.833Z,1.92
2022-12-22T22:36:27.594Z,1.90
2022-12-22T22:38:54.478Z,1.00
2022-12-22T22:41:21.285Z,1.40
2022-12-22T22:43:48.055Z,1.35
2022-12-22T22:46:14.820Z,1.55
2022-12-22T22:48:41.513Z,1.40
2022-12-22T22:51:10.499Z,1.20
2022-12-22T22:53:37.171Z,1.33
2022-12-22T22:56:04.375Z,1.50
2022-12-22T22:58:31.302Z,1.25
2022-12-22T23:01:07.888Z,1.30
2022-12-22T23:03:37.103Z,1.38
2022-12-22T23:06:04.978Z,1.40
2022-12-22T23:08:33.497Z,1.40
2022-12-22T23:11:01.324Z,1.08
2022-12-22T23:13:28.414Z,1.48
2022-12-22T23:16:02.826Z,1.40
2022-12-22T23:18:30.509Z,1.20
2022-12-22T23:21:01.460Z,1.20
2022-12-22T23:23:28.845Z,1.13
2022-12-22T23:25:55.846Z,1.40
2022-12-22T23:28:22.719Z,1.20
2022-12-22T23:30:53.289Z,1.02
2022-12-22T23:33:20.457Z,1.17
2022-12-22T23:35:48.665Z,1.45
2022-12-22T23:38:16.293Z,0.85
2022-12-22T23:40:58.254Z,1.85
2022-12-22T23:43:24.917Z,1.38
2022-12-22T23:45:51.624Z,0.98
2022-12-22T23:48:18.262Z,0.73
2022-12-22T23:50:48.740Z,0.77
2022-12-22T23:53:16.226Z,1.25
2022-12-22T23:55:44.705Z,0.47
2022-12-22T23:58:11.552Z,0.80
